Latest Weather Observations for Leinster

IDW60801

Issued at 10:23 pm WST Saturday 23 January 2021 (issued every 10 minutes, with the page automatically refreshed every 10 minutes)

About weather observations | Map of weather stations | Latest weather observations for WA | Other Formats
Station Details ID: 012314 Name: LEINSTER AERO Lat: -27.84 Lon: 120.70 Height: 497.0 m
Data from the previous 72 hours. | See also: Recent months at Leinster
Date/Time
WST
Temp
°C
App
Temp
°C
Dew
Point
°C
Rel
Hum
%
Delta-T
°C
Wind Press
QNH
hPa
Press
MSL
hPa
Rain since
9am
mm
Dir  Spd
km/h
Gust
km/h
Spd
kts
Gust
kts
23/10:00pm 30.2 29.4 16.2 42 8.9 NE 15 22 8 12 1002.9 998.9 0.0
23/09:30pm 30.6 29.7 15.8 40 9.4 NE 15 20 8 11 1002.9 998.9 0.0
23/09:00pm 31.0 30.5 15.8 40 9.7 NE 13 19 7 10 1002.9 998.9 0.0
23/08:30pm 31.5 30.5 15.5 38 10.1 ENE 15 22 8 12 1002.7 998.7 0.0
23/08:00pm 32.0 31.0 15.5 37 10.5 ENE 15 20 8 11 1002.5 998.5 0.0
23/07:30pm 32.5 30.9 15.1 35 11.0 ENE 17 20 9 11 1002.3 998.3 0.0
23/07:00pm 33.1 31.5 15.1 33 11.4 NE 17 22 9 12 1002.2 998.2 0.0
23/06:30pm 34.0 33.5 15.0 32 12.0 NE 11 17 6 9 1002.0 998.0 0.0
23/06:00pm 34.8 33.7 15.2 31 12.5 NE 15 20 8 11 1001.9 997.9 0.0
23/05:30pm 34.8 34.4 15.2 31 12.5 NE 11 19 6 10 1001.7 997.7 0.0
23/05:00pm 35.1 34.8 15.4 30 12.6 NNE 11 19 6 10 1001.6 997.6 0.0
23/04:30pm 35.1 34.6 14.9 29 12.8 NW 11 19 6 10 1001.6 997.6 0.0
23/04:00pm 34.6 33.9 15.5 32 12.2 NE 13 20 7 11 1001.7 997.7 0.0
23/03:30pm 34.5 34.0 15.9 33 11.9 NW 13 22 7 12 1002.2 998.2 0.0
23/03:00pm 34.2 34.0 15.6 32 11.9 N 11 20 6 11 1002.4 998.4 0.0
23/02:30pm 33.8 33.2 15.7 33 11.6 N 13 32 7 17 1002.6 998.6 0.0
23/02:00pm 33.5 33.2 16.4 36 11.1 NNE 13 28 7 15 1002.9 998.9 0.0
23/01:30pm 32.3 30.8 16.2 38 10.3 NNE 19 30 10 16 1003.4 999.4 0.0
23/01:00pm 32.7 31.4 16.9 38 10.3 N 19 30 10 16 1003.7 999.7 0.0
23/12:30pm 32.5 30.9 17.5 40 9.8 NNE 22 44 12 24 1003.7 999.7 0.0
23/12:00pm 31.9 30.8 17.8 43 9.2 N 20 35 11 19 1004.3 1000.3 0.0
23/11:30am 29.8 28.1 17.3 47 8.1 NNE 22 35 12 19 1004.7 1000.7 0.0
23/11:00am 30.1 28.3 17.9 48 8.0 N 24 33 13 18 1005.1 1001.2 0.0
23/10:30am 29.3 27.1 18.7 52 7.0 NNE 28 41 15 22 1005.3 1001.4 0.0
23/10:00am 28.1 26.1 18.2 55 6.5 NNE 26 39 14 21 1005.8 1001.8 0.0
23/09:30am 27.1 24.9 18.7 60 5.5 NNE 28 37 15 20 1006.0 1002.0 0.0
23/09:00am 26.9 24.7 18.7 60 5.4 NNE 28 37 15 20 1006.1 1002.1 10.4
23/08:30am 26.3 24.3 18.4 61 5.1 NNE 26 37 14 20 1006.2 1002.2 10.4
23/08:00am 25.8 24.9 19.0 66 4.5 NNE 22 32 12 17 1006.1 1002.1 10.4
23/07:30am 25.2 25.1 19.6 71 3.7 N 19 26 10 14 1006.1 1002.1 10.2
23/07:00am 23.9 25.0 20.4 81 2.3 N 15 22 8 12 1006.3 1002.3 10.2
23/06:30am 22.8 25.4 20.5 87 1.5 N 7 15 4 8 1005.9 1001.9 10.2
23/06:00am 21.0 24.7 20.7 98 0.2 NNW 2 7 1 4 1005.6 1001.6 10.2
23/05:30am 21.0 24.3 20.7 98 0.2 N 4 7 2 4 1005.6 1001.6 10.2
23/05:00am 21.1 23.5 20.8 98 0.2 N 9 13 5 7 1005.0 1001.0 10.2
23/04:30am 21.0 23.3 20.7 98 0.2 NNE 9 13 5 7 1004.2 1000.2 10.2
23/04:00am 21.1 23.5 20.8 98 0.2 NE 9 15 5 8 1004.1 1000.1 10.2
23/03:30am 21.5 23.2 21.0 97 0.3 NE 13 19 7 10 1003.9 999.9 10.2
23/03:00am 21.7 23.4 20.9 95 0.5 NNE 13 15 7 8 1003.9 999.9 10.2
23/02:30am 21.7 23.3 20.7 94 0.7 NE 13 20 7 11 1004.0 1000.0 10.2
23/02:00am 21.8 23.1 20.8 94 0.7 ENE 15 20 8 11 1003.9 999.9 10.2
23/01:30am 21.7 23.2 20.5 93 0.8 NE 13 17 7 9 1004.2 1000.2 10.2
23/01:00am 21.8 23.6 20.3 91 1.0 ENE 11 19 6 10 1004.9 1000.9 10.2
23/12:30am 22.2 23.3 19.7 86 1.6 ENE 13 19 7 10 1005.6 1001.6 10.2
23/12:00am 22.7 22.5 18.5 77 2.7 NE 17 24 9 13 1006.0 1002.0 10.2
 
Date/Time
WST
Temp
°C
App
Temp
°C
Dew
Point
°C
Rel
Hum
%
Delta-T
°C
Wind Press
QNH
hPa
Press
MSL
hPa
Rain since
9am
mm
Dir  Spd
km/h
Gust
km/h
Spd
kts
Gust
kts
22/11:30pm 22.3 21.7 20.4 89 1.3 NE 24 46 13 25 1006.5 1002.5 10.2
22/11:00pm 22.1 21.1 21.3 95 0.5 NE 28 41 15 22 1007.1 1003.2 10.2
22/10:30pm 22.4 21.8 21.2 93 0.8 NE 26 37 14 20 1006.7 1002.7 10.2
22/10:00pm 22.3 22.2 21.5 95 0.5 NE 24 35 13 19 1007.4 1003.5 10.2
22/09:30pm 22.6 22.5 22.3 98 0.2 NE 26 35 14 19 1008.3 1004.3 10.2
22/09:00pm 24.2 24.9 20.5 80 2.5 NE 17 30 9 16 1007.7 1003.7 9.8
22/08:30pm 24.9 26.1 20.6 77 2.9 NE 15 28 8 15 1006.9 1002.9 9.4
22/08:00pm 25.0 27.4 20.9 78 2.8 W 9 15 5 8 1006.4 1002.4 9.4
22/07:30pm 26.0 27.5 18.9 65 4.6 N 9 15 5 8 1006.5 1002.5 9.4
22/07:00pm 26.1 27.4 18.5 63 4.9 NNE 9 13 5 7 1006.0 1002.0 9.4
22/06:30pm 24.9 25.9 19.5 72 3.5 NE 13 20 7 11 1005.1 1001.2 9.4
22/06:00pm 23.8 21.8 19.9 79 2.6 ENE 30 43 16 23 1004.4 1000.4 9.4
22/05:30pm 24.8 23.1 20.5 77 2.9 ENE 30 44 16 24 1004.7 1000.7 9.4
22/05:00pm 26.1 25.6 20.0 69 4.1 ENE 22 35 12 19 1005.3 1001.4 9.4
22/04:57pm 26.1 25.8 19.5 67 4.3 NE 20 35 11 19 1005.3 1001.4 9.4
22/04:30pm 29.7 30.0 16.1 43 8.6 SW 9 15 5 8 1004.0 1000.0 9.2
22/04:00pm 28.1 27.8 17.3 52 6.9 ESE 15 24 8 13 1004.2 1000.2 9.2
22/03:30pm 26.5 26.1 19.4 65 4.7 WSW 20 33 11 18 1002.8 998.8 9.2
22/03:23pm 26.4 24.3 19.0 63 4.8 SW 28 37 15 20 1002.5 998.5 9.2
22/03:03pm 24.9 18.1 16.9 61 5.0 W 48 74 26 40 1002.3 998.3 8.2
22/03:00pm 24.7 20.0 17.7 65 4.5 W 39 70 21 38 1002.7 998.7 5.6
22/02:59pm 23.4 19.1 17.8 71 3.6 W 37 70 20 38 1003.0 999.0 5.0
22/02:57pm 25.2 21.7 17.9 64 4.7 WSW 33 70 18 38 1003.5 999.5 3.2
22/02:54pm 25.4 23.6 19.5 70 3.9 WSW 28 48 15 26 1004.0 1000.0 2.6
22/02:38pm 26.6 24.4 18.7 62 5.1 WSW 28 44 15 24 1003.6 999.6 2.4
22/02:30pm 26.5 24.2 20.1 68 4.3 SW 32 65 17 35 1003.4 999.4 2.4
22/02:23pm 25.0 20.8 18.9 69 4.0 WSW 39 65 21 35 1002.6 998.6 2.2
22/02:21pm 24.7 19.8 17.2 63 4.7 WSW 39 65 21 35 1002.8 998.8 2.2
22/02:20pm 26.4 22.6 18.0 60 5.4 WSW 35 65 19 35 1002.7 998.7 1.6
22/02:06pm 31.5 28.5 13.7 33 11.0 NW 22 46 12 25 1002.2 998.2 0.0
22/02:03pm 33.1 30.5 13.2 30 12.2 N 19 43 10 23 1002.0 998.0 0.0
22/02:00pm 39.4 35.8 9.8 17 17.8 N 19 32 10 17 1001.6 997.6 0.0
22/01:30pm 39.7 34.0 8.2 15 18.5 N 28 39 15 21 1002.1 998.1 0.0
22/01:00pm 41.2 36.8 10.4 16 18.8 NNW 24 37 13 20 1002.5 998.5 0.0
22/12:30pm 40.5 35.4 10.7 17 18.1 N 28 39 15 21 1003.5 999.5 0.0
22/12:00pm 40.3 35.8 11.4 18 17.8 NNW 26 39 14 21 1003.8 999.8 0.0
22/11:30am 40.2 36.6 10.5 17 18.0 NNW 20 35 11 19 1004.2 1000.2 0.0
22/11:00am 39.1 33.9 10.4 18 17.4 NNW 28 39 15 21 1004.6 1000.6 0.0
22/10:30am 40.6 37.6 12.5 19 17.5 NW 20 33 11 18 1005.0 1001.0 0.0
22/10:00am 38.2 35.0 12.0 21 16.2 NNW 20 32 11 17 1005.5 1001.5 0.0
22/09:30am 37.1 33.9 11.8 22 15.5 NNW 20 32 11 17 1005.7 1001.7 0.0
22/09:00am 36.1 33.2 9.6 20 15.7 NE 15 20 8 11 1005.9 1001.9 0.0
22/08:30am 35.3 33.0 10.4 22 14.8 NE 13 17 7 9 1006.0 1002.0 0.0
22/08:00am 32.8 30.1 10.2 25 13.3 NE 15 19 8 10 1006.2 1002.2 0.0
22/07:30am 31.7 29.8 10.4 27 12.5 ENE 11 15 6 8 1006.3 1002.3 0.0
22/07:00am 30.6 28.9 11.1 30 11.5 ENE 11 15 6 8 1006.4 1002.4 0.0
22/06:30am 29.1 28.4 12.1 35 10.1 ESE 7 9 4 5 1006.2 1002.2 0.0
22/06:00am 29.0 27.9 12.0 35 10.1 E 9 13 5 7 1006.0 1002.0 0.0
22/05:30am 28.9 27.8 11.9 35 10.1 E 9 13 5 7 1005.7 1001.7 0.0
22/05:00am 30.0 28.1 10.5 30 11.4 E 11 19 6 10 1005.5 1001.5 0.0
22/04:30am 29.7 28.3 10.8 31 11.0 NNE 9 13 5 7 1005.0 1001.0 0.0
22/04:00am 29.5 27.8 11.1 32 10.8 NNE 11 13 6 7 1004.6 1000.6 0.0
22/03:30am 29.4 27.4 11.5 33 10.6 NNE 13 15 7 8 1004.5 1000.5 0.0
22/03:00am 29.4 27.9 11.9 34 10.4 NE 11 15 6 8 1004.4 1000.4 0.0
22/02:30am 29.8 27.1 11.8 33 10.7 NE 17 20 9 11 1004.4 1000.4 0.0
22/02:00am 29.7 27.8 11.7 33 10.7 NE 13 17 7 9 1004.2 1000.2 0.0
22/01:30am 30.2 28.1 11.2 31 11.2 ENE 13 15 7 8 1004.1 1000.1 0.0
22/01:00am 30.6 29.9 10.0 28 12.0 N 4 11 2 6 1004.5 1000.5 0.0
22/12:30am 31.5 31.2 10.2 27 12.4 N 2 7 1 4 1004.6 1000.6 0.0
22/12:00am 31.8 30.3 10.5 27 12.5 NNE 9 13 5 7 1005.1 1001.2 0.0
 
Date/Time
WST
Temp
°C
App
Temp
°C
Dew
Point
°C
Rel
Hum
%
Delta-T
°C
Wind Press
QNH
hPa
Press
MSL
hPa
Rain since
9am
mm
Dir  Spd
km/h
Gust
km/h
Spd
kts
Gust
kts
21/11:30pm 32.5 31.0 10.5 26 12.9 WSW 9 11 5 6 1005.7 1001.7 0.0
21/11:00pm 33.3 30.7 10.6 25 13.5 WSW 15 17 8 9 1006.2 1002.2 0.0
21/10:30pm 31.9 30.7 11.7 29 12.1 NNW 9 20 5 11 1006.7 1002.7 0.0
21/10:00pm 32.3 30.7 11.5 28 12.5 NE 11 15 6 8 1006.4 1002.4 0.0
21/09:30pm 32.7 31.2 11.8 28 12.6 NE 11 15 6 8 1006.5 1002.5 0.0
21/09:00pm 32.8 31.1 12.4 29 12.4 ENE 13 20 7 11 1006.3 1002.3 0.0
21/08:30pm 33.3 31.2 12.3 28 12.7 E 15 22 8 12 1006.2 1002.2 0.0
21/08:00pm 34.4 32.8 10.3 23 14.3 E 9 11 5 6 1006.1 1002.1 0.0
21/07:30pm 34.6 31.7 11.1 24 14.1 NNE 17 26 9 14 1005.6 1001.6 0.0
21/07:00pm 34.7 30.7 10.5 23 14.4 N 22 33 12 18 1005.8 1001.8 0.0
21/06:30pm 36.4 31.1 9.8 20 15.7 N 28 41 15 22 1005.5 1001.5 0.0
21/06:00pm 37.0 34.4 7.9 17 16.8 NE 11 24 6 13 1004.9 1000.9 0.0
21/05:30pm 36.0 33.3 11.6 23 14.8 NE 17 28 9 15 1004.9 1000.9 0.0
21/05:11pm 36.8 32.0 10.2 20 15.9 NNW 26 56 14 30 1004.8 1000.8 0.0
21/05:00pm 40.1 37.7 8.5 15 18.7 W 11 20 6 11 1004.4 1000.4 0.0
21/04:30pm 40.5 37.5 7.8 14 19.1 W 13 22 7 12 1004.0 1000.0 0.0
21/04:00pm 41.2 37.3 7.3 13 19.8 WNW 17 24 9 13 1004.2 1000.2 0.0
21/03:30pm 40.4 38.4 8.8 15 18.7 NNW 9 15 5 8 1004.6 1000.6 0.0
21/03:00pm 38.8 36.2 9.4 17 17.5 W 13 24 7 13 1005.2 1001.3 0.0
21/02:30pm 39.6 36.2 9.1 16 18.1 W 17 30 9 16 1005.6 1001.6 0.0
21/02:00pm 41.1 38.1 9.3 15 19.1 W 15 28 8 15 1005.9 1001.9 0.0
21/01:30pm 39.1 36.0 8.7 16 17.9 WSW 15 35 8 19 1006.4 1002.4 0.0
21/01:00pm 40.8 35.9 7.0 13 19.6 W 22 35 12 19 1006.8 1002.8 0.0
21/12:30pm 39.5 34.9 8.1 15 18.4 NW 22 35 12 19 1007.0 1003.1 0.0
21/12:00pm 39.5 36.3 9.9 17 17.8 WNW 17 24 9 13 1007.3 1003.4 0.0
21/11:30am 38.0 33.8 9.6 18 16.9 W 22 33 12 18 1007.8 1003.8 0.0
21/11:00am 37.3 34.1 9.8 19 16.4 WSW 17 26 9 14 1008.2 1004.2 0.0
21/10:30am 36.3 35.0 11.2 22 15.2 NW 9 17 5 9 1008.6 1004.6 0.0
21/10:00am 36.7 35.3 12.2 23 15.1 NW 11 19 6 10 1009.0 1005.1 0.0
21/09:30am 34.6 33.0 11.7 25 13.8 NW 11 19 6 10 1009.2 1005.3 0.0
21/09:00am 33.9 33.3 12.3 27 13.2 W 7 13 4 7 1009.3 1005.4 0.0
21/08:30am 33.2 32.7 12.8 29 12.5 WNW 7 13 4 7 1009.2 1005.3 0.0
21/08:00am 32.0 31.6 12.3 30 11.9 WNW 6 9 3 5 1009.2 1005.3 0.0
21/07:30am 31.0 31.4 12.4 32 11.2 NNW 2 6 1 3 1009.2 1005.3 0.0
21/07:00am 30.4 29.9 12.8 34 10.7 E 7 9 4 5 1009.0 1005.1 0.0
21/06:30am 28.7 29.5 12.6 37 9.6 CALM 0 6 0 3 1009.1 1005.2 0.0
21/06:00am 26.9 26.2 11.4 38 9.0 W 6 7 3 4 1008.8 1004.9 0.0
21/05:30am 25.7 24.7 11.1 40 8.4 WNW 7 7 4 4 1008.7 1004.7 0.0
21/05:00am 27.1 26.7 11.2 37 9.3 WNW 4 6 2 3 1008.6 1004.6 0.0
21/04:30am 27.1 26.5 11.6 38 9.1 W 6 7 3 4 1008.5 1004.5 0.0
21/04:00am 27.5 28.0 11.5 37 9.4 CALM 0 0 0 0 1008.1 1004.1 0.0
21/03:30am 28.1 27.3 11.2 35 9.9 W 6 7 3 4 1007.9 1003.9 0.0
21/03:00am 29.2 28.0 11.7 34 10.4 W 9 13 5 7 1008.3 1004.3 0.0
21/02:30am 28.9 28.4 11.9 35 10.1 WNW 6 11 3 6 1008.5 1004.5 0.0
21/02:00am 29.3 27.6 12.3 35 10.2 WSW 13 19 7 10 1008.5 1004.5 0.0
21/01:30am 28.0 26.5 14.3 43 8.4 WSW 15 19 8 10 1008.5 1004.5 0.0
21/01:00am 27.2 25.4 15.6 49 7.2 WSW 19 28 10 15 1008.6 1004.6 0.0
21/12:30am 29.5 23.8 12.9 36 10.0 WSW 35 56 19 30 1009.2 1005.3 0.0
21/12:18am 31.3 26.3 11.1 29 11.9 WSW 28 46 15 25 1009.1 1005.2 0.0
21/12:00am 32.4 27.9 9.9 25 13.1 W 24 33 13 18 1008.8 1004.9 0.0
 
Date/Time
WST
Temp
°C
App
Temp
°C
Dew
Point
°C
Rel
Hum
%
Delta-T
°C
Wind Press
QNH
hPa
Press
MSL
hPa
Rain since
9am
mm
Dir  Spd
km/h
Gust
km/h
Spd
kts
Gust
kts
20/11:30pm 31.9 30.2 10.0 26 12.8 WSW 9 15 5 8 1008.5 1004.5 0.0
20/11:00pm 31.6 30.3 9.8 26 12.7 W 7 9 4 5 1008.5 1004.5 0.0
20/10:30pm 32.7 31.1 10.1 25 13.2 SSW 9 11 5 6 1008.4 1004.4 0.0

Other formats

Comma delimited format used in spreadsheet applications
http://www.bom.gov.au/fwo/IDW60801/IDW60801.95448.axf

JavaScript Object Notation format (JSON) in row-major order
http://www.bom.gov.au/fwo/IDW60801/IDW60801.95448.json

Data quality

Most of these data are generated automatically and are frequently updated. Quality checks on data are not normally performed. It is possible for incorrect values to appear. Refer to information at About Latest Weather Observations and please check the disclaimer before using these data.